Terminal Aerodrome Forecast
Issued by NWS

Home | Current Version | Previous Version | Text Only | Print | Product List | Glossary On
Versions: 1 2 3 4 5 6 7 8 9 10 11 12
000
FTUS44 KTSA 251726
TAFXNA
TAF
KXNA 251726Z 2518/2618 05012KT P6SM VCSH FEW012 SCT025
     FM260000 VRB03KT P6SM BKN250
     FM260600 VRB02KT 5SM BR VCTS BKN050CB
     FM261300 VRB02KT 5SM BR BKN050=

USA.gov is the U.S. government's official web portal to all federal, state and local government web resources and services.